sensor_id;sensor_type;location;lat;lon;timestamp;P1;durP1;ratioP1;P2;durP2;ratioP2
41233;SDS011;26968;42.686;23.352;2024-03-02T00:03:45;33.13;;;14.30;;
41233;SDS011;26968;42.686;23.352;2024-03-02T00:08:37;32.33;;;13.52;;
41233;SDS011;26968;42.686;23.352;2024-03-02T00:13:28;33.42;;;14.10;;
41233;SDS011;26968;42.686;23.352;2024-03-02T00:15:58;31.83;;;14.13;;
41233;SDS011;26968;42.686;23.352;2024-03-02T00:20:56;32.75;;;14.27;;
41233;SDS011;26968;42.686;23.352;2024-03-02T00:23:23;28.65;;;13.20;;
41233;SDS011;26968;42.686;23.352;2024-03-02T00:25:50;32.35;;;13.57;;
41233;SDS011;26968;42.686;23.352;2024-03-02T00:28:21;36.58;;;14.82;;
41233;SDS011;26968;42.686;23.352;2024-03-02T00:31:06;29.58;;;14.70;;
41233;SDS011;26968;42.686;23.352;2024-03-02T00:33:33;33.70;;;14.85;;
41233;SDS011;26968;42.686;23.352;2024-03-02T00:36:01;30.50;;;14.02;;
41233;SDS011;26968;42.686;23.352;2024-03-02T00:38:28;32.85;;;14.35;;
41233;SDS011;26968;42.686;23.352;2024-03-02T00:40:55;33.13;;;15.55;;
41233;SDS011;26968;42.686;23.352;2024-03-02T00:45:54;33.47;;;14.88;;
41233;SDS011;26968;42.686;23.352;2024-03-02T00:50:45;33.78;;;13.77;;
41233;SDS011;26968;42.686;23.352;2024-03-02T00:58:03;35.30;;;14.63;;
41233;SDS011;26968;42.686;23.352;2024-03-02T01:02:54;32.55;;;14.00;;
41233;SDS011;26968;42.686;23.352;2024-03-02T01:07:45;28.55;;;12.18;;
41233;SDS011;26968;42.686;23.352;2024-03-02T01:12:36;27.95;;;13.02;;
41233;SDS011;26968;42.686;23.352;2024-03-02T01:15:02;28.60;;;13.13;;
41233;SDS011;26968;42.686;23.352;2024-03-02T01:17:31;30.85;;;13.20;;
41233;SDS011;26968;42.686;23.352;2024-03-02T01:22:22;28.00;;;11.32;;
41233;SDS011;26968;42.686;23.352;2024-03-02T01:24:50;29.77;;;13.45;;
41233;SDS011;26968;42.686;23.352;2024-03-02T01:32:07;23.80;;;11.30;;
41233;SDS011;26968;42.686;23.352;2024-03-02T01:36:57;30.75;;;12.73;;
41233;SDS011;26968;42.686;23.352;2024-03-02T01:41:48;28.75;;;12.38;;
41233;SDS011;26968;42.686;23.352;2024-03-02T01:46:39;26.40;;;12.35;;
41233;SDS011;26968;42.686;23.352;2024-03-02T01:51:31;32.85;;;13.50;;
41233;SDS011;26968;42.686;23.352;2024-03-02T01:56:22;31.58;;;13.30;;
41233;SDS011;26968;42.686;23.352;2024-03-02T02:01:13;29.90;;;14.55;;
41233;SDS011;26968;42.686;23.352;2024-03-02T02:06:05;33.00;;;14.23;;
41233;SDS011;26968;42.686;23.352;2024-03-02T02:08:32;32.40;;;14.73;;
41233;SDS011;26968;42.686;23.352;2024-03-02T02:13:24;31.13;;;13.88;;
41233;SDS011;26968;42.686;23.352;2024-03-02T02:18:15;36.17;;;14.25;;
41233;SDS011;26968;42.686;23.352;2024-03-02T02:23:06;33.75;;;14.13;;
41233;SDS011;26968;42.686;23.352;2024-03-02T02:25:34;32.92;;;15.73;;
41233;SDS011;26968;42.686;23.352;2024-03-02T02:32:52;34.67;;;15.75;;
41233;SDS011;26968;42.686;23.352;2024-03-02T02:37:44;36.63;;;15.07;;
41233;SDS011;26968;42.686;23.352;2024-03-02T02:40:11;33.08;;;14.85;;
41233;SDS011;26968;42.686;23.352;2024-03-02T02:42:37;36.17;;;16.17;;
41233;SDS011;26968;42.686;23.352;2024-03-02T02:47:29;32.15;;;14.20;;
41233;SDS011;26968;42.686;23.352;2024-03-02T02:52:21;33.38;;;13.43;;
41233;SDS011;26968;42.686;23.352;2024-03-02T02:57:12;36.65;;;14.70;;
41233;SDS011;26968;42.686;23.352;2024-03-02T03:02:02;34.75;;;14.77;;
41233;SDS011;26968;42.686;23.352;2024-03-02T03:04:29;33.33;;;13.90;;
41233;SDS011;26968;42.686;23.352;2024-03-02T03:09:20;31.35;;;14.27;;
41233;SDS011;26968;42.686;23.352;2024-03-02T03:14:11;36.17;;;14.93;;
41233;SDS011;26968;42.686;23.352;2024-03-02T03:19:02;32.15;;;13.95;;
41233;SDS011;26968;42.686;23.352;2024-03-02T03:21:28;38.42;;;14.30;;
41233;SDS011;26968;42.686;23.352;2024-03-02T03:26:20;34.00;;;15.52;;
41233;SDS011;26968;42.686;23.352;2024-03-02T03:31:11;33.55;;;14.18;;
41233;SDS011;26968;42.686;23.352;2024-03-02T03:33:37;34.55;;;16.30;;
41233;SDS011;26968;42.686;23.352;2024-03-02T03:38:28;39.80;;;15.55;;
41233;SDS011;26968;42.686;23.352;2024-03-02T03:40:54;43.80;;;16.55;;
41233;SDS011;26968;42.686;23.352;2024-03-02T03:45:45;34.55;;;14.60;;
41233;SDS011;26968;42.686;23.352;2024-03-02T03:50:36;36.03;;;15.85;;
41233;SDS011;26968;42.686;23.352;2024-03-02T03:53:03;36.10;;;16.30;;
41233;SDS011;26968;42.686;23.352;2024-03-02T03:57:54;36.70;;;15.98;;
41233;SDS011;26968;42.686;23.352;2024-03-02T04:02:45;34.45;;;14.80;;
41233;SDS011;26968;42.686;23.352;2024-03-02T04:07:36;31.05;;;13.90;;
41233;SDS011;26968;42.686;23.352;2024-03-02T04:10:09;32.67;;;15.90;;
41233;SDS011;26968;42.686;23.352;2024-03-02T04:12:38;36.10;;;14.98;;
41233;SDS011;26968;42.686;23.352;2024-03-02T04:15:07;36.00;;;15.50;;
41233;SDS011;26968;42.686;23.352;2024-03-02T04:17:33;32.72;;;14.85;;
41233;SDS011;26968;42.686;23.352;2024-03-02T04:19:59;36.42;;;15.38;;
41233;SDS011;26968;42.686;23.352;2024-03-02T04:22:25;36.08;;;15.40;;
41233;SDS011;26968;42.686;23.352;2024-03-02T04:24:52;35.13;;;15.77;;
41233;SDS011;26968;42.686;23.352;2024-03-02T04:27:18;32.88;;;14.50;;
41233;SDS011;26968;42.686;23.352;2024-03-02T04:32:09;36.22;;;14.65;;
41233;SDS011;26968;42.686;23.352;2024-03-02T04:34:34;35.00;;;15.30;;
41233;SDS011;26968;42.686;23.352;2024-03-02T04:39:25;32.00;;;15.07;;
41233;SDS011;26968;42.686;23.352;2024-03-02T04:46:42;33.05;;;13.93;;
41233;SDS011;26968;42.686;23.352;2024-03-02T04:51:32;41.90;;;15.43;;
41233;SDS011;26968;42.686;23.352;2024-03-02T04:53:59;40.08;;;16.30;;
41233;SDS011;26968;42.686;23.352;2024-03-02T04:59:09;40.65;;;15.73;;
41233;SDS011;26968;42.686;23.352;2024-03-02T05:04:00;39.13;;;15.07;;
41233;SDS011;26968;42.686;23.352;2024-03-02T05:08:51;40.38;;;15.48;;
41233;SDS011;26968;42.686;23.352;2024-03-02T05:14:14;36.85;;;16.00;;
41233;SDS011;26968;42.686;23.352;2024-03-02T05:19:07;39.28;;;16.95;;
41233;SDS011;26968;42.686;23.352;2024-03-02T05:21:33;44.78;;;16.95;;
41233;SDS011;26968;42.686;23.352;2024-03-02T05:23:59;44.88;;;17.73;;
41233;SDS011;26968;42.686;23.352;2024-03-02T05:28:50;40.15;;;15.10;;
41233;SDS011;26968;42.686;23.352;2024-03-02T05:33:42;42.78;;;16.75;;
41233;SDS011;26968;42.686;23.352;2024-03-02T05:41:02;42.08;;;16.15;;
41233;SDS011;26968;42.686;23.352;2024-03-02T05:43:28;40.80;;;17.13;;
41233;SDS011;26968;42.686;23.352;2024-03-02T05:48:19;38.33;;;15.60;;
41233;SDS011;26968;42.686;23.352;2024-03-02T05:50:44;42.00;;;17.75;;
41233;SDS011;26968;42.686;23.352;2024-03-02T05:53:10;41.83;;;16.85;;
41233;SDS011;26968;42.686;23.352;2024-03-02T05:58:01;40.78;;;16.65;;
41233;SDS011;26968;42.686;23.352;2024-03-02T06:00:45;44.10;;;17.13;;
41233;SDS011;26968;42.686;23.352;2024-03-02T06:05:36;42.88;;;16.40;;
41233;SDS011;26968;42.686;23.352;2024-03-02T06:10:27;48.80;;;17.27;;
41233;SDS011;26968;42.686;23.352;2024-03-02T06:15:17;43.03;;;16.17;;
41233;SDS011;26968;42.686;23.352;2024-03-02T06:20:09;49.47;;;19.38;;
41233;SDS011;26968;42.686;23.352;2024-03-02T06:22:35;45.53;;;18.77;;
41233;SDS011;26968;42.686;23.352;2024-03-02T06:27:26;49.95;;;17.23;;
41233;SDS011;26968;42.686;23.352;2024-03-02T06:32:17;39.47;;;14.65;;
41233;SDS011;26968;42.686;23.352;2024-03-02T06:37:08;41.75;;;15.15;;
41233;SDS011;26968;42.686;23.352;2024-03-02T06:41:59;40.75;;;16.60;;
41233;SDS011;26968;42.686;23.352;2024-03-02T06:44:25;49.55;;;18.35;;
41233;SDS011;26968;42.686;23.352;2024-03-02T06:49:16;38.45;;;14.75;;
41233;SDS011;26968;42.686;23.352;2024-03-02T06:51:43;42.80;;;15.70;;
41233;SDS011;26968;42.686;23.352;2024-03-02T06:54:09;41.28;;;16.52;;
41233;SDS011;26968;42.686;23.352;2024-03-02T06:59:00;42.13;;;17.15;;
41233;SDS011;26968;42.686;23.352;2024-03-02T07:01:26;42.67;;;16.00;;
41233;SDS011;26968;42.686;23.352;2024-03-02T07:03:53;44.20;;;17.27;;
41233;SDS011;26968;42.686;23.352;2024-03-02T07:08:44;47.30;;;16.42;;
41233;SDS011;26968;42.686;23.352;2024-03-02T07:11:09;43.40;;;16.58;;
41233;SDS011;26968;42.686;23.352;2024-03-02T07:16:00;42.15;;;15.68;;
41233;SDS011;26968;42.686;23.352;2024-03-02T07:18:29;45.47;;;16.80;;
41233;SDS011;26968;42.686;23.352;2024-03-02T07:20:56;45.10;;;17.83;;
41233;SDS011;26968;42.686;23.352;2024-03-02T07:23:24;42.50;;;17.60;;
41233;SDS011;26968;42.686;23.352;2024-03-02T07:25:52;50.42;;;16.83;;
41233;SDS011;26968;42.686;23.352;2024-03-02T07:28:21;43.90;;;16.52;;
41233;SDS011;26968;42.686;23.352;2024-03-02T07:33:29;45.42;;;17.27;;
41233;SDS011;26968;42.686;23.352;2024-03-02T07:35:55;42.88;;;17.55;;
41233;SDS011;26968;42.686;23.352;2024-03-02T07:38:22;49.92;;;20.45;;
41233;SDS011;26968;42.686;23.352;2024-03-02T07:40:48;52.35;;;23.17;;
41233;SDS011;26968;42.686;23.352;2024-03-02T07:43:18;50.97;;;20.45;;
41233;SDS011;26968;42.686;23.352;2024-03-02T07:45:47;49.03;;;21.75;;
41233;SDS011;26968;42.686;23.352;2024-03-02T07:48:13;50.63;;;21.88;;
41233;SDS011;26968;42.686;23.352;2024-03-02T07:50:39;49.08;;;21.27;;
41233;SDS011;26968;42.686;23.352;2024-03-02T07:55:31;45.85;;;18.23;;
41233;SDS011;26968;42.686;23.352;2024-03-02T08:00:22;51.00;;;19.42;;
41233;SDS011;26968;42.686;23.352;2024-03-02T08:02:49;50.50;;;19.58;;
41233;SDS011;26968;42.686;23.352;2024-03-02T08:05:18;46.75;;;19.20;;
41233;SDS011;26968;42.686;23.352;2024-03-02T08:10:10;46.60;;;17.88;;
41233;SDS011;26968;42.686;23.352;2024-03-02T08:15:01;43.03;;;16.20;;
41233;SDS011;26968;42.686;23.352;2024-03-02T08:19:52;45.65;;;16.45;;
41233;SDS011;26968;42.686;23.352;2024-03-02T08:22:18;44.28;;;16.95;;
41233;SDS011;26968;42.686;23.352;2024-03-02T08:27:09;43.78;;;17.20;;
41233;SDS011;26968;42.686;23.352;2024-03-02T08:32:00;47.55;;;18.40;;
41233;SDS011;26968;42.686;23.352;2024-03-02T08:36:51;46.80;;;17.52;;
41233;SDS011;26968;42.686;23.352;2024-03-02T08:41:44;43.15;;;16.95;;
41233;SDS011;26968;42.686;23.352;2024-03-02T08:44:11;54.97;;;22.27;;
41233;SDS011;26968;42.686;23.352;2024-03-02T08:46:38;64.43;;;27.92;;
41233;SDS011;26968;42.686;23.352;2024-03-02T08:49:04;72.32;;;32.17;;
41233;SDS011;26968;42.686;23.352;2024-03-02T08:53:56;86.75;;;36.90;;
41233;SDS011;26968;42.686;23.352;2024-03-02T08:56:22;66.03;;;29.77;;
41233;SDS011;26968;42.686;23.352;2024-03-02T08:58:49;58.65;;;27.83;;
41233;SDS011;26968;42.686;23.352;2024-03-02T09:01:15;56.20;;;25.77;;
41233;SDS011;26968;42.686;23.352;2024-03-02T09:03:42;57.50;;;24.42;;
41233;SDS011;26968;42.686;23.352;2024-03-02T09:06:10;47.13;;;22.20;;
41233;SDS011;26968;42.686;23.352;2024-03-02T09:08:36;40.75;;;19.70;;
41233;SDS011;26968;42.686;23.352;2024-03-02T09:11:03;42.47;;;18.65;;
41233;SDS011;26968;42.686;23.352;2024-03-02T09:13:30;41.92;;;19.27;;
41233;SDS011;26968;42.686;23.352;2024-03-02T09:15:56;36.63;;;16.23;;
41233;SDS011;26968;42.686;23.352;2024-03-02T09:18:22;43.88;;;16.95;;
41233;SDS011;26968;42.686;23.352;2024-03-02T09:20:47;39.40;;;16.20;;
41233;SDS011;26968;42.686;23.352;2024-03-02T09:23:13;35.85;;;15.30;;
41233;SDS011;26968;42.686;23.352;2024-03-02T09:25:39;38.10;;;17.92;;
41233;SDS011;26968;42.686;23.352;2024-03-02T09:28:05;37.50;;;16.63;;
41233;SDS011;26968;42.686;23.352;2024-03-02T09:30:32;34.90;;;17.50;;
41233;SDS011;26968;42.686;23.352;2024-03-02T09:32:57;41.42;;;17.98;;
41233;SDS011;26968;42.686;23.352;2024-03-02T09:35:23;38.75;;;16.30;;
41233;SDS011;26968;42.686;23.352;2024-03-02T09:37:48;39.25;;;16.23;;
41233;SDS011;26968;42.686;23.352;2024-03-02T09:40:14;42.88;;;17.88;;
41233;SDS011;26968;42.686;23.352;2024-03-02T09:42:41;40.22;;;17.27;;
41233;SDS011;26968;42.686;23.352;2024-03-02T09:45:08;38.97;;;15.82;;
41233;SDS011;26968;42.686;23.352;2024-03-02T09:47:35;43.20;;;16.75;;
41233;SDS011;26968;42.686;23.352;2024-03-02T09:50:01;40.25;;;16.52;;
41233;SDS011;26968;42.686;23.352;2024-03-02T09:52:26;42.22;;;16.83;;
41233;SDS011;26968;42.686;23.352;2024-03-02T09:54:52;36.78;;;15.65;;
41233;SDS011;26968;42.686;23.352;2024-03-02T09:57:18;40.97;;;17.55;;
41233;SDS011;26968;42.686;23.352;2024-03-02T09:59:43;44.08;;;17.55;;
41233;SDS011;26968;42.686;23.352;2024-03-02T10:02:10;41.35;;;16.60;;
41233;SDS011;26968;42.686;23.352;2024-03-02T10:04:36;40.97;;;16.45;;
41233;SDS011;26968;42.686;23.352;2024-03-02T10:07:12;48.83;;;20.58;;
41233;SDS011;26968;42.686;23.352;2024-03-02T10:09:42;46.40;;;20.75;;
41233;SDS011;26968;42.686;23.352;2024-03-02T10:12:09;47.78;;;19.98;;
41233;SDS011;26968;42.686;23.352;2024-03-02T10:14:39;44.58;;;18.83;;
41233;SDS011;26968;42.686;23.352;2024-03-02T10:17:06;43.60;;;18.25;;
41233;SDS011;26968;42.686;23.352;2024-03-02T10:19:35;42.05;;;18.55;;
41233;SDS011;26968;42.686;23.352;2024-03-02T10:22:02;39.33;;;16.88;;
41233;SDS011;26968;42.686;23.352;2024-03-02T10:24:38;40.35;;;17.38;;
41233;SDS011;26968;42.686;23.352;2024-03-02T10:27:09;40.00;;;16.40;;
41233;SDS011;26968;42.686;23.352;2024-03-02T10:29:56;34.70;;;15.07;;
41233;SDS011;26968;42.686;23.352;2024-03-02T10:32:22;33.22;;;15.55;;
41233;SDS011;26968;42.686;23.352;2024-03-02T10:34:48;35.53;;;15.13;;
41233;SDS011;26968;42.686;23.352;2024-03-02T10:37:15;39.53;;;17.15;;
41233;SDS011;26968;42.686;23.352;2024-03-02T10:39:42;38.50;;;15.82;;
41233;SDS011;26968;42.686;23.352;2024-03-02T10:42:08;33.10;;;14.90;;
41233;SDS011;26968;42.686;23.352;2024-03-02T10:44:34;35.50;;;15.52;;
41233;SDS011;26968;42.686;23.352;2024-03-02T10:47:00;31.92;;;14.98;;
41233;SDS011;26968;42.686;23.352;2024-03-02T10:49:29;36.97;;;16.08;;
41233;SDS011;26968;42.686;23.352;2024-03-02T10:51:56;38.10;;;15.15;;
41233;SDS011;26968;42.686;23.352;2024-03-02T10:54:25;35.25;;;15.13;;
41233;SDS011;26968;42.686;23.352;2024-03-02T10:56:54;39.72;;;17.73;;
41233;SDS011;26968;42.686;23.352;2024-03-02T10:59:27;39.92;;;15.57;;
41233;SDS011;26968;42.686;23.352;2024-03-02T11:01:57;38.83;;;16.25;;
41233;SDS011;26968;42.686;23.352;2024-03-02T11:04:25;38.47;;;16.08;;
41233;SDS011;26968;42.686;23.352;2024-03-02T11:06:51;33.80;;;14.70;;
41233;SDS011;26968;42.686;23.352;2024-03-02T11:09:23;34.83;;;14.95;;
41233;SDS011;26968;42.686;23.352;2024-03-02T11:12:03;38.28;;;15.30;;
41233;SDS011;26968;42.686;23.352;2024-03-02T11:14:40;34.33;;;14.13;;
41233;SDS011;26968;42.686;23.352;2024-03-02T11:17:08;30.70;;;13.98;;
41233;SDS011;26968;42.686;23.352;2024-03-02T11:19:35;31.95;;;13.70;;
41233;SDS011;26968;42.686;23.352;2024-03-02T11:22:03;29.50;;;12.57;;
41233;SDS011;26968;42.686;23.352;2024-03-02T11:24:30;26.15;;;12.55;;
41233;SDS011;26968;42.686;23.352;2024-03-02T11:27:00;31.55;;;13.27;;
41233;SDS011;26968;42.686;23.352;2024-03-02T11:34:56;36.20;;;15.32;;
41233;SDS011;26968;42.686;23.352;2024-03-02T11:37:21;38.60;;;15.25;;
41233;SDS011;26968;42.686;23.352;2024-03-02T11:39:48;30.48;;;13.35;;
41233;SDS011;26968;42.686;23.352;2024-03-02T11:42:18;34.85;;;15.55;;
41233;SDS011;26968;42.686;23.352;2024-03-02T11:44:47;33.05;;;15.43;;
41233;SDS011;26968;42.686;23.352;2024-03-02T11:47:14;35.25;;;15.48;;
41233;SDS011;26968;42.686;23.352;2024-03-02T11:49:48;38.88;;;14.98;;
41233;SDS011;26968;42.686;23.352;2024-03-02T11:52:16;39.78;;;15.13;;
41233;SDS011;26968;42.686;23.352;2024-03-02T11:54:43;30.63;;;14.18;;
41233;SDS011;26968;42.686;23.352;2024-03-02T11:57:17;33.40;;;14.48;;
41233;SDS011;26968;42.686;23.352;2024-03-02T11:59:44;33.33;;;15.02;;
41233;SDS011;26968;42.686;23.352;2024-03-02T12:02:17;28.55;;;13.38;;
41233;SDS011;26968;42.686;23.352;2024-03-02T12:04:44;52.47;;;15.20;;
41233;SDS011;26968;42.686;23.352;2024-03-02T12:07:10;36.33;;;16.02;;
41233;SDS011;26968;42.686;23.352;2024-03-02T12:09:36;34.20;;;15.23;;
41233;SDS011;26968;42.686;23.352;2024-03-02T12:14:28;33.50;;;13.98;;
41233;SDS011;26968;42.686;23.352;2024-03-02T12:16:55;26.13;;;12.55;;
41233;SDS011;26968;42.686;23.352;2024-03-02T12:19:21;28.63;;;12.40;;
41233;SDS011;26968;42.686;23.352;2024-03-02T12:21:47;28.65;;;12.60;;
41233;SDS011;26968;42.686;23.352;2024-03-02T12:24:12;26.65;;;11.55;;
41233;SDS011;26968;42.686;23.352;2024-03-02T12:26:38;32.63;;;12.07;;
41233;SDS011;26968;42.686;23.352;2024-03-02T12:29:04;32.75;;;13.43;;
41233;SDS011;26968;42.686;23.352;2024-03-02T12:31:30;29.13;;;13.07;;
41233;SDS011;26968;42.686;23.352;2024-03-02T12:33:55;27.52;;;12.65;;
41233;SDS011;26968;42.686;23.352;2024-03-02T12:36:21;34.10;;;15.40;;
41233;SDS011;26968;42.686;23.352;2024-03-02T12:38:47;28.02;;;13.40;;
41233;SDS011;26968;42.686;23.352;2024-03-02T12:41:16;30.23;;;13.13;;
41233;SDS011;26968;42.686;23.352;2024-03-02T12:43:41;29.05;;;13.75;;
41233;SDS011;26968;42.686;23.352;2024-03-02T12:46:07;31.30;;;15.18;;
41233;SDS011;26968;42.686;23.352;2024-03-02T12:48:34;28.77;;;14.05;;
41233;SDS011;26968;42.686;23.352;2024-03-02T12:51:01;26.20;;;13.20;;
41233;SDS011;26968;42.686;23.352;2024-03-02T12:53:26;25.42;;;12.48;;
41233;SDS011;26968;42.686;23.352;2024-03-02T12:55:52;19.88;;;11.20;;
41233;SDS011;26968;42.686;23.352;2024-03-02T12:58:21;23.58;;;11.50;;
41233;SDS011;26968;42.686;23.352;2024-03-02T13:00:47;29.55;;;12.20;;
41233;SDS011;26968;42.686;23.352;2024-03-02T13:03:14;27.98;;;12.18;;
41233;SDS011;26968;42.686;23.352;2024-03-02T13:05:43;25.75;;;10.50;;
41233;SDS011;26968;42.686;23.352;2024-03-02T13:08:13;21.42;;;10.27;;
41233;SDS011;26968;42.686;23.352;2024-03-02T13:10:39;25.50;;;10.93;;
41233;SDS011;26968;42.686;23.352;2024-03-02T13:13:06;27.42;;;12.73;;
41233;SDS011;26968;42.686;23.352;2024-03-02T13:15:32;22.38;;;11.80;;
41233;SDS011;26968;42.686;23.352;2024-03-02T13:17:58;25.25;;;11.05;;
41233;SDS011;26968;42.686;23.352;2024-03-02T13:20:32;27.90;;;12.48;;
41233;SDS011;26968;42.686;23.352;2024-03-02T13:22:58;24.75;;;12.48;;
41233;SDS011;26968;42.686;23.352;2024-03-02T13:25:23;22.20;;;11.38;;
41233;SDS011;26968;42.686;23.352;2024-03-02T13:27:49;24.73;;;13.73;;
41233;SDS011;26968;42.686;23.352;2024-03-02T13:30:14;24.02;;;11.85;;
41233;SDS011;26968;42.686;23.352;2024-03-02T13:32:40;26.50;;;12.65;;
41233;SDS011;26968;42.686;23.352;2024-03-02T13:35:05;26.83;;;13.27;;
41233;SDS011;26968;42.686;23.352;2024-03-02T13:37:31;27.48;;;12.30;;
41233;SDS011;26968;42.686;23.352;2024-03-02T13:39:57;28.35;;;13.23;;
41233;SDS011;26968;42.686;23.352;2024-03-02T13:42:23;30.10;;;13.43;;
41233;SDS011;26968;42.686;23.352;2024-03-02T13:44:49;30.48;;;13.55;;
41233;SDS011;26968;42.686;23.352;2024-03-02T13:47:16;28.33;;;12.13;;
41233;SDS011;26968;42.686;23.352;2024-03-02T13:49:44;23.17;;;12.02;;
41233;SDS011;26968;42.686;23.352;2024-03-02T13:52:11;25.73;;;12.60;;
41233;SDS011;26968;42.686;23.352;2024-03-02T13:54:42;24.25;;;11.82;;
41233;SDS011;26968;42.686;23.352;2024-03-02T13:57:10;27.15;;;12.82;;
41233;SDS011;26968;42.686;23.352;2024-03-02T13:59:36;25.90;;;13.02;;
41233;SDS011;26968;42.686;23.352;2024-03-02T14:02:03;22.95;;;11.45;;
41233;SDS011;26968;42.686;23.352;2024-03-02T14:04:34;23.35;;;11.85;;
41233;SDS011;26968;42.686;23.352;2024-03-02T14:07:00;32.55;;;13.20;;
41233;SDS011;26968;42.686;23.352;2024-03-02T14:09:27;25.88;;;11.88;;
41233;SDS011;26968;42.686;23.352;2024-03-02T14:11:53;26.75;;;11.80;;
41233;SDS011;26968;42.686;23.352;2024-03-02T14:14:19;25.02;;;12.35;;
41233;SDS011;26968;42.686;23.352;2024-03-02T14:16:44;24.83;;;12.02;;
41233;SDS011;26968;42.686;23.352;2024-03-02T14:24:02;27.55;;;11.40;;
41233;SDS011;26968;42.686;23.352;2024-03-02T14:26:27;24.52;;;11.73;;
41233;SDS011;26968;42.686;23.352;2024-03-02T14:31:19;26.50;;;12.57;;
41233;SDS011;26968;42.686;23.352;2024-03-02T14:33:45;30.17;;;12.60;;
41233;SDS011;26968;42.686;23.352;2024-03-02T14:36:11;23.83;;;12.60;;
41233;SDS011;26968;42.686;23.352;2024-03-02T14:38:37;26.30;;;12.55;;
41233;SDS011;26968;42.686;23.352;2024-03-02T14:41:03;31.55;;;14.05;;
41233;SDS011;26968;42.686;23.352;2024-03-02T14:43:29;26.15;;;12.30;;
41233;SDS011;26968;42.686;23.352;2024-03-02T14:45:54;29.60;;;13.38;;
41233;SDS011;26968;42.686;23.352;2024-03-02T14:48:21;28.27;;;13.55;;
41233;SDS011;26968;42.686;23.352;2024-03-02T14:50:46;28.35;;;13.30;;
41233;SDS011;26968;42.686;23.352;2024-03-02T14:53:12;26.20;;;12.77;;
41233;SDS011;26968;42.686;23.352;2024-03-02T14:55:38;25.65;;;13.00;;
41233;SDS011;26968;42.686;23.352;2024-03-02T14:58:03;25.33;;;12.98;;
41233;SDS011;26968;42.686;23.352;2024-03-02T15:00:29;29.63;;;13.32;;
41233;SDS011;26968;42.686;23.352;2024-03-02T15:02:54;29.83;;;13.95;;
41233;SDS011;26968;42.686;23.352;2024-03-02T15:05:20;27.45;;;14.00;;
41233;SDS011;26968;42.686;23.352;2024-03-02T15:07:46;33.88;;;14.07;;
41233;SDS011;26968;42.686;23.352;2024-03-02T15:10:11;25.67;;;13.45;;
41233;SDS011;26968;42.686;23.352;2024-03-02T15:12:37;30.33;;;13.63;;
41233;SDS011;26968;42.686;23.352;2024-03-02T15:15:03;27.27;;;14.15;;
41233;SDS011;26968;42.686;23.352;2024-03-02T15:17:29;31.10;;;14.80;;
41233;SDS011;26968;42.686;23.352;2024-03-02T15:19:55;30.35;;;13.98;;
41233;SDS011;26968;42.686;23.352;2024-03-02T15:22:20;31.60;;;14.95;;
41233;SDS011;26968;42.686;23.352;2024-03-02T15:27:11;28.23;;;15.02;;
41233;SDS011;26968;42.686;23.352;2024-03-02T15:32:03;32.35;;;13.70;;
41233;SDS011;26968;42.686;23.352;2024-03-02T15:34:32;29.67;;;14.07;;
41233;SDS011;26968;42.686;23.352;2024-03-02T15:36:58;30.80;;;14.77;;
41233;SDS011;26968;42.686;23.352;2024-03-02T15:39:25;37.80;;;15.10;;
41233;SDS011;26968;42.686;23.352;2024-03-02T15:41:51;29.50;;;14.48;;
41233;SDS011;26968;42.686;23.352;2024-03-02T15:44:16;33.72;;;15.70;;
41233;SDS011;26968;42.686;23.352;2024-03-02T15:49:07;30.13;;;14.57;;
41233;SDS011;26968;42.686;23.352;2024-03-02T15:51:33;31.02;;;14.55;;
41233;SDS011;26968;42.686;23.352;2024-03-02T15:54:02;30.48;;;16.17;;
41233;SDS011;26968;42.686;23.352;2024-03-02T15:56:28;38.55;;;15.60;;
41233;SDS011;26968;42.686;23.352;2024-03-02T15:58:54;33.10;;;14.93;;
41233;SDS011;26968;42.686;23.352;2024-03-02T16:01:20;35.45;;;15.27;;
41233;SDS011;26968;42.686;23.352;2024-03-02T16:03:45;29.73;;;14.50;;
41233;SDS011;26968;42.686;23.352;2024-03-02T16:06:13;29.52;;;15.75;;
41233;SDS011;26968;42.686;23.352;2024-03-02T16:08:39;32.40;;;16.55;;
41233;SDS011;26968;42.686;23.352;2024-03-02T16:11:05;33.28;;;16.05;;
41233;SDS011;26968;42.686;23.352;2024-03-02T16:13:31;34.10;;;16.67;;
41233;SDS011;26968;42.686;23.352;2024-03-02T16:15:57;34.15;;;16.65;;
41233;SDS011;26968;42.686;23.352;2024-03-02T16:18:22;36.97;;;17.40;;
41233;SDS011;26968;42.686;23.352;2024-03-02T16:20:48;38.15;;;16.90;;
41233;SDS011;26968;42.686;23.352;2024-03-02T16:23:14;31.98;;;16.50;;
41233;SDS011;26968;42.686;23.352;2024-03-02T16:25:39;36.72;;;17.90;;
41233;SDS011;26968;42.686;23.352;2024-03-02T16:28:06;33.05;;;15.82;;
41233;SDS011;26968;42.686;23.352;2024-03-02T16:30:36;39.08;;;18.92;;
41233;SDS011;26968;42.686;23.352;2024-03-02T16:33:02;40.40;;;18.88;;
41233;SDS011;26968;42.686;23.352;2024-03-02T16:35:28;40.55;;;19.50;;
41233;SDS011;26968;42.686;23.352;2024-03-02T16:37:53;39.65;;;20.52;;
41233;SDS011;26968;42.686;23.352;2024-03-02T16:40:19;37.95;;;17.83;;
41233;SDS011;26968;42.686;23.352;2024-03-02T16:42:44;37.60;;;18.60;;
41233;SDS011;26968;42.686;23.352;2024-03-02T16:45:10;41.85;;;19.13;;
41233;SDS011;26968;42.686;23.352;2024-03-02T16:47:36;37.85;;;18.95;;
41233;SDS011;26968;42.686;23.352;2024-03-02T16:50:02;40.03;;;21.33;;
41233;SDS011;26968;42.686;23.352;2024-03-02T16:52:31;43.97;;;21.65;;
41233;SDS011;26968;42.686;23.352;2024-03-02T16:54:56;44.17;;;20.27;;
41233;SDS011;26968;42.686;23.352;2024-03-02T16:57:22;45.78;;;22.48;;
41233;SDS011;26968;42.686;23.352;2024-03-02T16:59:47;40.70;;;21.45;;
41233;SDS011;26968;42.686;23.352;2024-03-02T17:04:39;43.35;;;20.80;;
41233;SDS011;26968;42.686;23.352;2024-03-02T17:07:05;42.17;;;21.52;;
41233;SDS011;26968;42.686;23.352;2024-03-02T17:09:31;51.30;;;23.17;;
41233;SDS011;26968;42.686;23.352;2024-03-02T17:11:58;46.92;;;22.98;;
41233;SDS011;26968;42.686;23.352;2024-03-02T17:14:23;44.80;;;21.58;;
41233;SDS011;26968;42.686;23.352;2024-03-02T17:16:50;49.72;;;23.42;;
41233;SDS011;26968;42.686;23.352;2024-03-02T17:19:15;48.03;;;22.38;;
41233;SDS011;26968;42.686;23.352;2024-03-02T17:21:41;49.92;;;23.65;;
41233;SDS011;26968;42.686;23.352;2024-03-02T17:24:07;52.10;;;23.95;;
41233;SDS011;26968;42.686;23.352;2024-03-02T17:26:33;50.85;;;24.67;;
41233;SDS011;26968;42.686;23.352;2024-03-02T17:28:58;53.83;;;25.63;;
41233;SDS011;26968;42.686;23.352;2024-03-02T17:31:24;60.17;;;26.40;;
41233;SDS011;26968;42.686;23.352;2024-03-02T17:33:50;52.40;;;25.40;;
41233;SDS011;26968;42.686;23.352;2024-03-02T17:36:15;47.97;;;22.42;;
41233;SDS011;26968;42.686;23.352;2024-03-02T17:38:41;40.80;;;20.95;;
41233;SDS011;26968;42.686;23.352;2024-03-02T17:41:07;39.67;;;20.50;;
41233;SDS011;26968;42.686;23.352;2024-03-02T17:43:42;41.33;;;19.75;;
41233;SDS011;26968;42.686;23.352;2024-03-02T17:46:07;36.35;;;18.50;;
41233;SDS011;26968;42.686;23.352;2024-03-02T17:48:33;32.05;;;17.08;;